メインページ
METAR-TAF:

METAR-TAF

空港 :

チューレ空軍基地

トゥーレ, グリーンランド

緯度: 76-32N, 経度: 068-42W, 海抜: 77m

現時点の気象観測

当レポートは45分前の03:56(UTC)に作成
の風 4kt
気温 -29°C
湿度 68%
気圧 1009 hPa
視程10km以上
晴天

METAR: BGTL 150356Z AUTO 09004KT 9999 CLR M29/M33 A2979 RMK AO2 SLP082 T12911330 412511300 TSNO CHINO RWY26 $

時間: 00:41 (04:41 UTC)

予報

当レポートは10時間37分前の18:04(UTC)に作成
予報は14日の 18時(UTC)から 15日の 24時(UTC)まで有効
東/南東の風 9kt、東/北東からの間で変化する
視程: 1710m
晴天

TAF: BGTL 141804Z 1418/1524 12009KT 9999 SKC QNH2953INS WND 070V170 TXM24/1422Z TNM30/1515Z LAST NO AMDS AFT 1420 NEXT 1710

4,000以上の空港の気象観測と天気予報(METAR報とTAF報)

利用可能な観測所は地図上に黄色い丸と赤い丸で示す。

丸の上にカーソルを重ねると観測所名を参照できる。

次にクリックすると気象観測と天気予報を参照できる。

マップの切り替え:黒色「×」印の緑ボタンをクリックして拡大、「-」印の緑ボタンをクリックして縮小、緑色の三角印をクリックして隣りの地図に切り替え


METAR-TAF: